Flight Track Log - Related Links

Times and Time Zones

All times are in EDT time to prevent confusion due to time zone crossing. See the CSN6702 flight status page for this flight to view local times or setup timezone preferences in your user account.

Time Position Orientation Groundspeed Altitude Reporting Facility
EDT Latitude Longitude Course Direction KTS MPH feet Rate Location/Type
Sat 06:20:00 AM 29.4737 121.7684 228° Southwest  Level Estimated
Sat 06:21:00 AM 29.4077 121.6840 228° Southwest  Level Estimated
Sat 06:22:00 AM 29.3417 121.5997 228° Southwest  Level Estimated
Sat 06:23:00 AM 29.2756 121.5156 228° Southwest  Level Estimated
Sat 06:24:00 AM 29.2094 121.4315 228° Southwest  Level Estimated
Sat 06:25:00 AM 29.1432 121.3475 228° Southwest  Level Estimated
Sat 06:26:00 AM 29.0770 121.2637 228° Southwest  Level Estimated
Sat 06:27:00 AM 29.0107 121.1800 228° Southwest  Level Estimated
Sat 06:28:00 AM 28.9443 121.0963 228° Southwest  Level Estimated
Sat 06:29:00 AM 28.8779 121.0128 228° Southwest  Level Estimated
Sat 06:30:00 AM 28.8114 120.9294 228° Southwest  Level Estimated
Sat 06:31:00 AM 28.7449 120.8461 228° Southwest  Level Estimated
Sat 06:32:00 AM 28.6784 120.7629 228° Southwest  Level Estimated
Sat 06:33:00 AM 28.6118 120.6798 228° Southwest  Level Estimated
Sat 06:34:00 AM 28.5451 120.5968 228° Southwest  Level Estimated
Sat 06:35:00 AM 28.4784 120.5139 228° Southwest  Level Estimated
Sat 06:36:00 AM 28.4116 120.4311 227° Southwest  Level Estimated
Sat 06:37:00 AM 28.3448 120.3484 227° Southwest  Level Estimated
Sat 06:38:00 AM 28.2779 120.2659 227° Southwest  Level Estimated
Sat 06:39:00 AM 28.2110 120.1834 227° Southwest  Level Estimated
Sat 06:40:00 AM 28.1441 120.1010 227° Southwest  Level Estimated
Sat 06:41:00 AM 28.0770 120.0188 227° Southwest  Level Estimated
Sat 06:42:00 AM 28.0100 119.9366 227° Southwest  Level Estimated
Sat 06:43:00 AM 27.9429 119.8546 227° Southwest  Level Estimated
Sat 06:44:00 AM 27.8757 119.7726 227° Southwest  Level Estimated
Sat 06:45:00 AM 27.8085 119.6907 227° Southwest  Level Estimated
Sat 06:46:00 AM 27.7412 119.6090 227° Southwest  Level Estimated
Sat 06:47:00 AM 27.6739 119.5273 227° Southwest  Level Estimated
Sat 06:48:00 AM 27.6066 119.4458 227° Southwest  Level Estimated
Sat 06:49:00 AM 27.5392 119.3643 227° Southwest  Level Estimated
Sat 06:50:00 AM 27.4717 119.2830 227° Southwest  Level Estimated
Sat 06:51:00 AM 27.4042 119.2017 227° Southwest  Level Estimated
Sat 06:52:00 AM 27.3367 119.1206 227° Southwest  Level Estimated
Sat 06:53:00 AM 27.2691 119.0395 227° Southwest  Level Estimated
Sat 06:54:00 AM 27.2015 118.9586 227° Southwest  Level Estimated
Sat 06:55:00 AM 27.1338 118.8777 227° Southwest  Level Estimated
Sat 06:56:00 AM 27.0661 118.7969 227° Southwest  Level Estimated
Sat 06:57:00 AM 26.9983 118.7163 227° Southwest  Level Estimated
Sat 06:58:00 AM 26.9305 118.6357 227° Southwest  Level Estimated
Sat 06:59:00 AM 26.8626 118.5552 227° Southwest  Level Estimated
Sat 07:00:00 AM 26.7947 118.4749 227° Southwest  Level Estimated
Sat 07:01:00 AM 26.7267 118.3946 227° Southwest  Level Estimated
Sat 07:02:00 AM 26.6587 118.3144 227° Southwest  Level Estimated
Sat 07:03:00 AM 26.5907 118.2343 226° Southwest  Level Estimated
Sat 07:04:00 AM 26.5226 118.1543 226° Southwest  Level Estimated
Sat 07:05:00 AM 26.4545 118.0744 226° Southwest  Level Estimated
Sat 07:06:00 AM 26.3863 117.9947 226° Southwest  Level Estimated
Sat 07:07:00 AM 26.3181 117.9149 226° Southwest  Level Estimated
Sat 07:08:00 AM 26.2498 117.8353 226° Southwest  Level Estimated
Sat 07:09:00 AM 26.1815 117.7558 226° Southwest  Level Estimated
Sat 07:10:00 AM 26.1131 117.6764 226° Southwest  Level Estimated
Sat 07:11:00 AM 26.0447 117.5971 226° Southwest  Level Estimated
Sat 07:12:00 AM 25.9763 117.5178 226° Southwest  Level Estimated
Sat 07:13:00 AM 25.9078 117.4387 226° Southwest  Level Estimated
Sat 07:14:00 AM 25.8393 117.3596 226° Southwest  Level Estimated
Sat 07:15:00 AM 25.7707 117.2806 226° Southwest  Level Estimated
Sat 07:16:00 AM 25.7021 117.2018 226° Southwest  Level Estimated
Sat 07:17:00 AM 25.6334 117.1230 226° Southwest  Level Estimated
Sat 07:18:00 AM 25.5647 117.0443 226° Southwest  Level Estimated
Sat 07:19:00 AM 25.4960 116.9657 226° Southwest  Level Estimated
Sat 07:20:00 AM 25.4272 116.8872 226° Southwest  Level Estimated
Sat 07:21:00 AM 25.3584 116.8088 226° Southwest  Level Estimated
Sat 07:22:00 AM 25.2895 116.7304 226° Southwest  Level Estimated
Sat 07:23:00 AM 25.2206 116.6522 226° Southwest  Level Estimated
Sat 07:24:00 AM 25.1517 116.5740 226° Southwest  Level Estimated
Sat 07:25:00 AM 25.0827 116.4960 226° Southwest  Level Estimated
Sat 07:26:00 AM 25.0136 116.4180 226° Southwest  Level Estimated
Sat 07:27:00 AM 24.9446 116.3401 226° Southwest  Level Estimated
Sat 07:28:00 AM 24.8755 116.2623 226° Southwest  Level Estimated
Sat 07:29:00 AM 24.8063 116.1846 226° Southwest  Level Estimated
Sat 07:30:00 AM 24.7371 116.1069 226° Southwest  Level Estimated
Sat 07:31:00 AM 24.6679 116.0294 226° Southwest  Level Estimated
Sat 07:32:00 AM 24.5986 115.9519 225° Southwest  Level Estimated
Sat 07:33:00 AM 24.5293 115.8746 225° Southwest  Level Estimated
Sat 07:34:00 AM 24.4599 115.7973 225° Southwest  Level Estimated
Sat 07:35:00 AM 24.3906 115.7201 225° Southwest  Level Estimated
Sat 07:36:00 AM 24.3211 115.6430 225° Southwest  Level Estimated
Sat 07:37:00 AM 24.2517 115.5659 225° Southwest  Level Estimated
Sat 07:38:00 AM 24.1822 115.4890 225° Southwest  Level Estimated
Sat 07:39:00 AM 24.1126 115.4121 225° Southwest  Level Estimated
Sat 07:40:00 AM 24.0430 115.3353 225° Southwest  Level Estimated
Sat 07:41:00 AM 23.9734 115.2586 225° Southwest  Level Estimated
Sat 07:42:00 AM 23.9037 115.1820 225° Southwest  Level Estimated
Sat 07:43:00 AM 23.8340 115.1055 225° Southwest  Level Estimated
Sat 07:44:00 AM 23.7643 115.0291 225° Southwest  Level Estimated
Sat 07:45:00 AM 23.6945 114.9527 225° Southwest  Level Estimated
Sat 07:46:00 AM 23.6247 114.8764 225° Southwest  Level Estimated
Sat 07:47:00 AM 23.5549 114.8002 225° Southwest  Level Estimated
Sat 07:48:00 AM 23.4850 114.7241 225° Southwest  Level Estimated
Sat 07:49:00 AM 23.4151 114.6480 225° Southwest  Level Estimated
Sat 07:50:00 AM 23.3451 114.5721 225° Southwest  Level Estimated
Sat 07:51:00 AM 23.2751 114.4962 225° Southwest  Level Estimated
Sat 07:52:00 AM 23.2051 114.4204 225° Southwest  Level Estimated
Sat 07:53:00 AM 23.1350 114.3447 225° Southwest  Level Estimated
Sat 07:54:00 AM 23.0649 114.2690 225° Southwest  Level Estimated
Sat 07:55:00 AM 22.9948 114.1934 225° Southwest  Level Estimated
Sat 07:56:00 AM 22.9246 114.1180 225° Southwest  Level Estimated
Sat 07:57:00 AM 22.8544 114.0425 225° Southwest  Level Estimated
Sat 07:58:00 AM 22.7842 113.9672 225° Southwest  Level Estimated
Sat 07:59:00 AM 22.7139 113.8920 225° Southwest  Level Estimated
Sat 08:00:00 AM 22.6436 113.8168 225° Southwest  Level Estimated
Sat 08:01:00 AM 22.6395 113.8124 225° Southwest  Level Estimated
Sat 08:02:00 AM 22.6395 113.8124 North  Level Estimated
Sat 08:03:00 AM 22.6395 113.8124 North  Level Estimated
Sat 08:04:00 AM 22.6395 113.8124 North  Level Estimated
Sat 08:05:00 AM 22.6395 113.8124 North  Level Estimated
Sat 08:06:00 AM 22.6395 113.8124 North  Level Estimated
Sat 08:07:00 AM 22.6395 113.8124 North  Level Estimated
Sat 08:08:00 AM 22.6395 113.8124 North  Level Estimated
Sat 08:09:00 AM 22.6395 113.8124 North  Level Estimated

Login

Don't have an account? Register now (free) for customized features, flight alerts, and more!